Forside
METAR-TAF:

METAR-TAF

Lufthavne :

Tarawa, Kiribati

Breddekreds: 01-21N, længdekreds: 172-55E, højde: 2 m

Aktuelle vejr

Denne rapport blev lavet for 39 minutter siden, kl. 05:00 UTC
Vind 7 kt fra syd
Temperatur 30°C
Fugtighed 62%
Tryk 1006 hPa
Sigt 10 km eller mere
Nogle få skyer i en højde af 2000 ft
Brudte skyer i en højde af 30000 ft

METAR: NGTA 210500Z 18007KT 9999 FEW020 BKN300 30/22 Q1006

Tid: 19:39 (05:39 UTC)

Vejrudsigter

Denne rapport blev lavet for 23 minutter siden, kl. 05:16 UTC
Foreløbig gælder fra 21 på 06 UTC til 22 på 06 UTC
Vind 8 kt fra sydøst
Sigt 10 km eller mere
Spredte skyer i en højde af 2000 ft
Brudte skyer i en højde af 10000 ft

TAF: NGTA 210516Z 2106/2206 14008KT 9999 SCT020 BKN100

Vejrobservationer og prognoser fra mere end 4000 lufthavne (METAR og TAF).

De gule og røde prikker repræsenterer de meteorologiske stationer.

Flyt musen over at se navnet på stationen.

Så klik over at se vejr observationer og prognoser.

At skifte det kort: Klik på de grønne knapper med et sort kors for at zoome ind; på den grønne knap med en bindestreg for at zoome ud; eller på de grønne pile for tilstødende kort.


METAR-TAF: